Time;durP1;ratioP1;P1;durP2;ratioP2;P2;SDS_P1;SDS_P2;PMS_P1;PMS_P2;Temp;Humidity;BMP_temperature;BMP_pressure;BME280_temperature;BME280_humidity;BME280_pressure;Samples;Min_cycle;Max_cycle;Signal;HPM_P1;HPM_P2
2023/05/04 00:01:48;;;;;;;;;;;19.20;54.60;;;;;;6270740;28;19913;-65
2023/05/04 00:04:52;;;;;;;;;;;19.20;54.50;;;;;;6270182;28;19917;-65
2023/05/04 00:07:52;;;;;;;;;;;19.20;54.50;;;;;;6269946;28;19909;-66
2023/05/04 00:10:54;;;;;;;;;;;19.20;54.50;;;;;;6269970;28;19920;-65
2023/05/04 00:13:55;;;;;;;;;;;19.20;54.50;;;;;;6270205;28;19913;-66
2023/05/04 00:16:55;;;;;;;;;;;19.20;54.60;;;;;;6269577;28;19970;-65
2023/05/04 00:19:56;;;;;;;;;;;19.20;54.60;;;;;;6270140;28;20592;-65
2023/05/04 00:22:56;;;;;;;;;;;19.20;54.60;;;;;;6269917;28;19932;-65
2023/05/04 00:25:58;;;;;;;;;;;19.20;54.50;;;;;;6269813;28;19913;-65
2023/05/04 00:28:58;;;;;;;;;;;19.20;54.50;;;;;;6269705;28;19913;-65
2023/05/04 00:31:59;;;;;;;;;;;19.20;54.50;;;;;;6270059;28;20019;-66
2023/05/04 00:34:59;;;;;;;;;;;19.20;54.60;;;;;;6269826;28;19917;-65
2023/05/04 00:38:01;;;;;;;;;;;19.20;54.60;;;;;;6269441;28;19924;-65
2023/05/04 00:41:02;;;;;;;;;;;19.20;55.20;;;;;;6269678;28;19909;-65
2023/05/04 00:44:03;;;;;;;;;;;19.20;54.50;;;;;;6268122;28;20078;-64
2023/05/04 00:47:03;;;;;;;;;;;19.20;54.50;;;;;;6269489;28;19974;-65
2023/05/04 00:50:04;;;;;;;;;;;19.20;54.50;;;;;;6267730;28;19920;-65
2023/05/04 00:53:11;;;;;;;;;;;19.20;54.50;;;;;;6269198;28;20014;-65
2023/05/04 00:56:11;;;;;;;;;;;19.20;54.50;;;;;;6244379;28;19940;-65
2023/05/04 00:59:14;;;;;;;;;;;19.20;54.50;;;;;;6244635;28;20311;-65
2023/05/04 01:02:15;;;;;;;;;;;19.20;54.50;;;;;;6242378;28;19940;-65
2023/05/04 01:05:16;;;;;;;;;;;19.20;54.50;;;;;;6244487;28;19944;-65
2023/05/04 01:08:17;;;;;;;;;;;19.20;54.50;;;;;;6244043;28;19959;-65
2023/05/04 01:11:20;;;;;;;;;;;19.20;54.50;;;;;;6244285;28;19909;-66
2023/05/04 01:14:21;;;;;;;;;;;19.20;54.50;;;;;;6261541;28;20015;-65
2023/05/04 01:17:21;;;;;;;;;;;19.20;54.50;;;;;;6268762;28;19920;-66
2023/05/04 01:20:22;;;;;;;;;;;19.20;54.50;;;;;;6268857;28;19909;-65
2023/05/04 01:23:23;;;;;;;;;;;19.20;54.50;;;;;;6269231;28;19913;-65
2023/05/04 01:26:28;;;;;;;;;;;19.20;54.50;;;;;;6268700;28;19909;-65
2023/05/04 01:29:31;;;;;;;;;;;19.20;54.60;;;;;;6268678;28;19916;-66
2023/05/04 01:32:32;;;;;;;;;;;19.20;54.50;;;;;;6268523;28;20058;-66
2023/05/04 01:35:33;;;;;;;;;;;19.20;54.50;;;;;;6267681;28;19916;-66
2023/05/04 01:38:34;;;;;;;;;;;19.20;54.50;;;;;;6267182;28;19909;-65
2023/05/04 01:41:35;;;;;;;;;;;19.20;54.50;;;;;;6268725;28;19948;-65
2023/05/04 01:44:36;;;;;;;;;;;19.20;55.20;;;;;;6268649;28;19939;-65
2023/05/04 01:47:37;;;;;;;;;;;19.20;54.50;;;;;;6268527;28;19954;-66
2023/05/04 01:50:37;;;;;;;;;;;19.20;54.60;;;;;;6268094;28;19925;-65
2023/05/04 01:53:38;;;;;;;;;;;19.20;54.60;;;;;;6268668;28;19985;-64
2023/05/04 01:56:38;;;;;;;;;;;19.20;54.60;;;;;;6268503;28;19920;-65
2023/05/04 01:59:39;;;;;;;;;;;19.20;54.50;;;;;;6267119;28;20000;-65
2023/05/04 02:02:39;;;;;;;;;;;19.20;54.50;;;;;;6268459;28;20293;-65
2023/05/04 02:05:40;;;;;;;;;;;19.20;54.50;;;;;;6268337;28;20046;-65
2023/05/04 02:08:41;;;;;;;;;;;19.20;54.60;;;;;;6268381;28;19959;-65
2023/05/04 02:11:41;;;;;;;;;;;19.20;54.60;;;;;;6268961;28;19913;-65
2023/05/04 02:14:42;;;;;;;;;;;19.20;54.50;;;;;;6273089;28;19913;-68
2023/05/04 02:17:43;;;;;;;;;;;19.20;54.60;;;;;;6273485;28;19916;-65
2023/05/04 02:20:43;;;;;;;;;;;19.20;54.60;;;;;;6272114;28;19991;-68
2023/05/04 02:23:44;;;;;;;;;;;19.20;54.50;;;;;;6272957;28;19921;-68
2023/05/04 02:26:44;;;;;;;;;;;19.20;54.60;;;;;;6273288;28;19909;-67
2023/05/04 02:29:45;;;;;;;;;;;19.20;54.50;;;;;;6272526;28;19936;-67
2023/05/04 02:32:45;;;;;;;;;;;19.20;54.50;;;;;;6272072;28;19920;-67
2023/05/04 02:35:46;;;;;;;;;;;19.20;54.50;;;;;;6272450;28;19913;-67
2023/05/04 02:38:47;;;;;;;;;;;19.20;54.60;;;;;;6272126;28;20015;-68
2023/05/04 02:41:47;;;;;;;;;;;19.20;54.60;;;;;;6272023;28;19998;-67
2023/05/04 02:44:48;;;;;;;;;;;19.20;54.60;;;;;;6272422;28;19924;-67
2023/05/04 02:47:48;;;;;;;;;;;19.20;54.60;;;;;;6270900;28;19909;-67
2023/05/04 02:50:49;;;;;;;;;;;19.20;54.60;;;;;;6270384;28;19963;-67
2023/05/04 02:53:49;;;;;;;;;;;19.20;54.60;;;;;;6271029;28;19915;-67
2023/05/04 02:56:50;;;;;;;;;;;19.20;54.50;;;;;;6272184;28;19913;-67
2023/05/04 02:59:50;;;;;;;;;;;19.20;54.60;;;;;;6271426;28;19908;-66
2023/05/04 03:02:51;;;;;;;;;;;19.20;54.50;;;;;;6271916;28;19909;-67
2023/05/04 03:05:51;;;;;;;;;;;19.20;54.50;;;;;;6271387;28;19909;-67
2023/05/04 03:08:52;;;;;;;;;;;19.20;55.20;;;;;;6262263;28;20012;-67
2023/05/04 03:11:52;;;;;;;;;;;19.20;54.50;;;;;;6258662;28;19908;-67
2023/05/04 03:14:53;;;;;;;;;;;19.20;54.50;;;;;;6270047;28;20266;-67
2023/05/04 03:17:53;;;;;;;;;;;19.20;54.50;;;;;;6270105;28;19917;-67
2023/05/04 03:20:55;;;;;;;;;;;19.20;54.50;;;;;;6269775;28;19912;-67
2023/05/04 03:23:55;;;;;;;;;;;19.20;54.50;;;;;;6270014;28;19908;-67
2023/05/04 03:26:56;;;;;;;;;;;19.20;54.50;;;;;;6269724;28;19967;-66
2023/05/04 03:29:56;;;;;;;;;;;19.20;54.60;;;;;;6270850;28;19958;-67
2023/05/04 03:32:57;;;;;;;;;;;19.20;54.50;;;;;;6269674;28;20289;-67
2023/05/04 03:35:57;;;;;;;;;;;19.20;54.50;;;;;;6270653;28;19919;-67
2023/05/04 03:38:58;;;;;;;;;;;19.20;54.50;;;;;;6269658;28;19932;-67
2023/05/04 03:41:58;;;;;;;;;;;19.20;54.50;;;;;;6270383;28;19909;-67
2023/05/04 03:44:59;;;;;;;;;;;19.20;54.50;;;;;;6270865;28;19940;-67
2023/05/04 03:48:00;;;;;;;;;;;19.20;54.50;;;;;;6270674;28;19909;-67
2023/05/04 03:51:00;;;;;;;;;;;19.20;54.50;;;;;;6270727;28;20015;-67
2023/05/04 03:54:01;;;;;;;;;;;19.20;54.50;;;;;;6270540;28;19913;-67
2023/05/04 03:57:03;;;;;;;;;;;19.20;54.50;;;;;;6270547;28;19913;-67
2023/05/04 04:00:34;;;;;;;;;;;19.20;54.50;;;;;;6270245;28;20377;-67
2023/05/04 04:03:35;;;;;;;;;;;19.20;54.50;;;;;;6268938;28;19908;-67
2023/05/04 04:06:36;;;;;;;;;;;19.20;54.50;;;;;;6270001;28;19920;-67
2023/05/04 04:09:36;;;;;;;;;;;19.20;54.50;;;;;;6270197;28;20409;-67
2023/05/04 04:12:37;;;;;;;;;;;19.20;54.50;;;;;;6269757;28;19909;-66
2023/05/04 04:15:37;;;;;;;;;;;19.20;54.50;;;;;;6270079;28;19912;-67
2023/05/04 04:18:38;;;;;;;;;;;19.20;54.50;;;;;;6268818;28;19920;-65
2023/05/04 04:21:38;;;;;;;;;;;19.20;54.50;;;;;;6266096;28;19908;-66
2023/05/04 04:24:39;;;;;;;;;;;19.20;54.40;;;;;;6269824;28;19913;-68
2023/05/04 04:27:40;;;;;;;;;;;19.20;54.00;;;;;;6268611;28;19958;-64
2023/05/04 04:30:41;;;;;;;;;;;19.10;52.70;;;;;;6270386;28;19951;-67
2023/05/04 04:33:41;;;;;;;;;;;19.10;51.80;;;;;;6269590;28;19913;-63
2023/05/04 04:36:42;;;;;;;;;;;19.10;50.90;;;;;;6263835;28;19924;-66
2023/05/04 04:39:43;;;;;;;;;;;19.10;51.50;;;;;;6267798;28;19916;-71
2023/05/04 04:42:44;;;;;;;;;;;19.10;50.10;;;;;;6269033;28;20386;-69
2023/05/04 04:45:45;;;;;;;;;;;19.10;49.60;;;;;;6268994;28;19909;-68
2023/05/04 04:48:46;;;;;;;;;;;19.10;49.50;;;;;;6268931;28;20367;-69
2023/05/04 04:51:47;;;;;;;;;;;19.10;48.70;;;;;;6268508;28;19916;-69
2023/05/04 04:54:48;;;;;;;;;;;19.10;48.60;;;;;;6268762;28;19908;-69
2023/05/04 04:57:49;;;;;;;;;;;19.10;49.20;;;;;;6249161;28;19980;-69
2023/05/04 05:00:51;;;;;;;;;;;19.10;49.80;;;;;;6283610;28;19909;-68
2023/05/04 05:03:52;;;;;;;;;;;19.10;50.20;;;;;;6269115;28;19932;-68
2023/05/04 05:06:53;;;;;;;;;;;19.10;50.60;;;;;;6268625;28;19908;-68
2023/05/04 05:09:53;;;;;;;;;;;19.10;50.90;;;;;;6256195;28;19928;-68
2023/05/04 05:12:54;;;;;;;;;;;19.10;51.20;;;;;;6268611;28;20557;-68
2023/05/04 05:15:54;;;;;;;;;;;19.10;51.30;;;;;;6268281;28;19956;-72
2023/05/04 05:18:55;;;;;;;;;;;19.10;51.60;;;;;;6268702;28;19909;-66
2023/05/04 05:21:56;;;;;;;;;;;19.10;51.70;;;;;;6267458;28;19974;-68
2023/05/04 05:24:56;;;;;;;;;;;19.10;51.80;;;;;;6246996;28;20370;-67
2023/05/04 05:27:57;;;;;;;;;;;19.10;51.90;;;;;;6258002;28;19955;-67
2023/05/04 05:30:57;;;;;;;;;;;19.10;52.00;;;;;;6268582;28;19909;-67
2023/05/04 05:33:58;;;;;;;;;;;19.10;52.10;;;;;;6258611;28;20222;-67
2023/05/04 05:36:58;;;;;;;;;;;19.10;52.10;;;;;;6243345;28;19919;-67
2023/05/04 05:39:59;;;;;;;;;;;19.10;52.10;;;;;;6243318;28;20008;-67
2023/05/04 05:43:00;;;;;;;;;;;19.10;52.20;;;;;;6243344;28;19910;-67
2023/05/04 05:46:00;;;;;;;;;;;19.10;52.20;;;;;;6242035;28;20270;-68
2023/05/04 05:49:01;;;;;;;;;;;19.10;52.20;;;;;;6247660;28;19925;-68
2023/05/04 05:52:02;;;;;;;;;;;19.10;52.30;;;;;;6248517;28;19910;-67
2023/05/04 05:55:02;;;;;;;;;;;19.10;52.40;;;;;;6247973;28;19975;-67
2023/05/04 05:58:04;;;;;;;;;;;19.10;52.30;;;;;;6247811;28;19940;-67
2023/05/04 06:01:05;;;;;;;;;;;19.10;52.30;;;;;;6264994;28;20370;-67
2023/05/04 06:04:05;;;;;;;;;;;19.10;52.40;;;;;;6275115;28;19916;-68
2023/05/04 06:07:06;;;;;;;;;;;19.10;52.40;;;;;;6275081;28;19967;-67
2023/05/04 06:10:07;;;;;;;;;;;19.10;52.50;;;;;;6274946;28;19916;-68
2023/05/04 06:13:09;;;;;;;;;;;19.10;52.50;;;;;;6272918;28;20075;-67
2023/05/04 06:16:09;;;;;;;;;;;19.10;51.90;;;;;;6273427;28;19912;-68
2023/05/04 06:19:10;;;;;;;;;;;19.10;52.50;;;;;;6273178;28;19916;-66
2023/05/04 06:22:11;;;;;;;;;;;19.10;52.20;;;;;;6274594;28;19928;-68
2023/05/04 06:25:12;;;;;;;;;;;19.10;52.10;;;;;;6274714;28;19913;-68
2023/05/04 06:28:12;;;;;;;;;;;19.10;52.40;;;;;;6274304;28;19909;-67
2023/05/04 06:31:13;;;;;;;;;;;19.10;51.90;;;;;;6274167;28;19909;-67
2023/05/04 06:34:17;;;;;;;;;;;19.10;52.60;;;;;;6274249;28;19999;-68
2023/05/04 06:37:18;;;;;;;;;;;19.10;52.40;;;;;;6272610;28;19920;-68
2023/05/04 06:40:18;;;;;;;;;;;19.10;52.00;;;;;;6272790;28;20262;-68
2023/05/04 06:43:19;;;;;;;;;;;19.10;52.10;;;;;;6273854;28;19909;-68
2023/05/04 06:46:20;;;;;;;;;;;19.10;52.00;;;;;;6274036;28;19996;-68
2023/05/04 06:49:20;;;;;;;;;;;19.10;52.10;;;;;;6274035;28;20613;-68
2023/05/04 06:52:21;;;;;;;;;;;19.20;52.10;;;;;;6273636;28;20007;-67
2023/05/04 06:55:21;;;;;;;;;;;19.10;52.20;;;;;;6272154;28;20262;-67
2023/05/04 06:58:22;;;;;;;;;;;19.20;52.30;;;;;;6262914;28;19913;-67
2023/05/04 07:01:23;;;;;;;;;;;19.10;52.30;;;;;;6249086;28;19935;-67
2023/05/04 07:04:23;;;;;;;;;;;19.10;52.10;;;;;;6249348;28;19909;-68
2023/05/04 07:07:24;;;;;;;;;;;19.10;52.30;;;;;;6248780;28;20317;-68
2023/05/04 07:10:24;;;;;;;;;;;19.10;52.30;;;;;;6247603;28;19909;-68
2023/05/04 07:13:25;;;;;;;;;;;19.20;52.50;;;;;;6271780;28;20576;-66
2023/05/04 07:16:26;;;;;;;;;;;19.20;52.40;;;;;;6273403;28;20003;-68
2023/05/04 07:19:26;;;;;;;;;;;19.20;52.50;;;;;;6273286;28;19920;-67
2023/05/04 07:22:27;;;;;;;;;;;19.20;52.50;;;;;;6273037;28;19913;-67
2023/05/04 07:25:27;;;;;;;;;;;19.20;52.60;;;;;;6271686;28;20501;-68
2023/05/04 07:28:28;;;;;;;;;;;19.10;52.40;;;;;;6271773;28;20285;-68
2023/05/04 07:31:29;;;;;;;;;;;19.10;52.50;;;;;;6272781;28;19909;-67
2023/05/04 07:34:30;;;;;;;;;;;19.10;52.60;;;;;;6272738;28;19920;-68
2023/05/04 07:37:31;;;;;;;;;;;19.20;52.60;;;;;;6272315;28;20335;-68
2023/05/04 07:40:31;;;;;;;;;;;19.20;52.60;;;;;;6272970;28;19916;-68
2023/05/04 07:43:32;;;;;;;;;;;19.10;52.50;;;;;;6272757;28;19908;-68
2023/05/04 07:46:33;;;;;;;;;;;19.20;52.60;;;;;;6272564;28;20370;-67
2023/05/04 07:49:33;;;;;;;;;;;19.20;52.70;;;;;;6272275;28;19921;-68
2023/05/04 07:52:34;;;;;;;;;;;19.10;52.60;;;;;;6263228;28;20369;-67
2023/05/04 07:55:35;;;;;;;;;;;19.20;52.70;;;;;;6247577;28;19913;-68
2023/05/04 07:58:36;;;;;;;;;;;19.20;52.80;;;;;;6247499;28;20294;-67
2023/05/04 08:01:37;;;;;;;;;;;19.20;52.70;;;;;;6259300;28;19970;-68
2023/05/04 08:04:38;;;;;;;;;;;19.20;52.90;;;;;;6272523;28;19928;-68
2023/05/04 08:07:38;;;;;;;;;;;19.10;52.70;;;;;;6271827;28;19956;-67
2023/05/04 08:10:39;;;;;;;;;;;19.20;52.80;;;;;;6271757;28;19962;-67
2023/05/04 08:13:40;;;;;;;;;;;19.10;52.70;;;;;;6271220;28;19908;-67
2023/05/04 08:16:41;;;;;;;;;;;19.20;52.90;;;;;;6272097;28;19975;-68
2023/05/04 08:19:41;;;;;;;;;;;19.20;52.90;;;;;;6271133;28;19909;-67
2023/05/04 08:22:42;;;;;;;;;;;19.20;53.00;;;;;;6272127;28;20370;-67
2023/05/04 08:25:43;;;;;;;;;;;19.20;53.00;;;;;;6263393;28;20267;-67
2023/05/04 08:28:44;;;;;;;;;;;19.20;53.00;;;;;;6272124;28;19909;-67
2023/05/04 08:31:45;;;;;;;;;;;19.20;53.00;;;;;;6272343;28;19909;-67
2023/05/04 08:34:46;;;;;;;;;;;19.20;53.00;;;;;;6271760;28;19928;-68
2023/05/04 08:37:46;;;;;;;;;;;19.20;53.00;;;;;;6270806;28;19921;-68
2023/05/04 08:40:47;;;;;;;;;;;19.20;53.10;;;;;;6271833;28;19913;-67
2023/05/04 08:43:48;;;;;;;;;;;19.10;53.00;;;;;;6271808;28;19913;-68
2023/05/04 08:46:52;;;;;;;;;;;19.20;53.10;;;;;;6271486;28;20059;-68
2023/05/04 08:49:53;;;;;;;;;;;19.20;53.10;;;;;;6271665;28;20343;-67
2023/05/04 08:52:54;;;;;;;;;;;19.20;53.10;;;;;;6271222;28;20377;-68
2023/05/04 08:55:56;;;;;;;;;;;19.10;53.00;;;;;;6271392;28;19966;-68
2023/05/04 08:59:00;;;;;;;;;;;19.20;53.10;;;;;;6271361;28;20539;-68
2023/05/04 09:02:01;;;;;;;;;;;19.20;53.10;;;;;;6270311;28;20011;-68
2023/05/04 09:05:01;;;;;;;;;;;19.20;53.10;;;;;;6271106;28;19908;-68
2023/05/04 09:08:02;;;;;;;;;;;19.20;53.10;;;;;;6271004;28;19909;-68
2023/05/04 09:11:03;;;;;;;;;;;19.10;53.00;;;;;;6271162;28;20354;-66
2023/05/04 09:14:04;;;;;;;;;;;19.10;53.10;;;;;;6271266;28;19908;-67
2023/05/04 09:17:11;;;;;;;;;;;19.20;53.20;;;;;;6269845;28;20030;-68
2023/05/04 09:20:12;;;;;;;;;;;19.20;53.10;;;;;;6269960;28;19909;-67
2023/05/04 09:23:13;;;;;;;;;;;19.10;53.10;;;;;;6268982;28;19975;-66
2023/05/04 09:26:14;;;;;;;;;;;19.10;53.10;;;;;;6271021;28;19909;-67
2023/05/04 09:29:14;;;;;;;;;;;19.20;53.20;;;;;;6270897;28;20432;-67
2023/05/04 09:32:15;;;;;;;;;;;19.10;53.10;;;;;;6270944;28;19916;-68
2023/05/04 09:35:18;;;;;;;;;;;19.20;53.10;;;;;;6270840;28;19909;-68
2023/05/04 09:38:30;;;;;;;;;;;19.20;53.20;;;;;;6270723;28;19920;-67
2023/05/04 09:41:32;;;;;;;;;;;19.20;53.20;;;;;;6269949;28;19913;-68
2023/05/04 09:44:34;;;;;;;;;;;19.20;53.20;;;;;;6261638;28;19983;-67
2023/05/04 09:47:35;;;;;;;;;;;19.20;53.20;;;;;;6266646;28;19909;-68
2023/05/04 09:50:38;;;;;;;;;;;19.20;53.20;;;;;;6270665;28;19920;-68
2023/05/04 09:53:39;;;;;;;;;;;19.20;53.20;;;;;;6271041;28;19955;-67
2023/05/04 09:56:42;;;;;;;;;;;19.20;53.30;;;;;;6270556;28;19986;-68
2023/05/04 09:59:43;;;;;;;;;;;19.20;53.20;;;;;;6271479;28;19951;-68
2023/05/04 10:02:45;;;;;;;;;;;19.20;53.20;;;;;;6271091;28;19909;-68
2023/05/04 10:05:46;;;;;;;;;;;19.20;53.20;;;;;;6272536;28;19913;-67
2023/05/04 10:08:50;;;;;;;;;;;19.20;53.20;;;;;;6266576;28;20350;-69
2023/05/04 10:11:50;;;;;;;;;;;19.20;53.10;;;;;;6270803;28;19916;-69
2023/05/04 10:14:51;;;;;;;;;;;19.20;53.10;;;;;;6270499;28;19944;-69
2023/05/04 10:18:10;;;;;;;;;;;19.20;53.10;;;;;;6269722;28;19923;-69
2023/05/04 10:21:46;;;;;;;;;;;19.20;53.10;;;;;;6259283;28;19948;-69
2023/05/04 10:24:50;;;;;;;;;;;19.20;53.10;;;;;;6263183;28;19969;-69
2023/05/04 10:27:53;;;;;;;;;;;19.20;53.10;;;;;;6255790;28;20267;-69
2023/05/04 10:30:57;;;;;;;;;;;19.20;53.20;;;;;;6245080;28;19916;-69
2023/05/04 10:33:58;;;;;;;;;;;19.20;53.20;;;;;;6267909;28;19979;-68
2023/05/04 10:36:59;;;;;;;;;;;19.20;53.20;;;;;;6274417;28;19913;-67
2023/05/04 10:40:00;;;;;;;;;;;19.20;53.30;;;;;;6274825;28;19912;-67
2023/05/04 10:43:01;;;;;;;;;;;19.20;53.30;;;;;;6263269;28;19960;-69
2023/05/04 10:46:01;;;;;;;;;;;19.20;53.40;;;;;;6264582;28;19948;-68
2023/05/04 10:49:13;;;;;;;;;;;19.20;53.30;;;;;;6267628;28;19928;-69
2023/05/04 10:52:17;;;;;;;;;;;19.20;53.30;;;;;;6270579;28;19913;-69
2023/05/04 10:55:18;;;;;;;;;;;19.10;53.20;;;;;;6247156;28;20374;-67
2023/05/04 10:58:26;;;;;;;;;;;19.20;53.30;;;;;;6259895;28;19913;-68
2023/05/04 11:01:27;;;;;;;;;;;19.20;53.30;;;;;;6273803;28;19928;-68
2023/05/04 11:04:28;;;;;;;;;;;19.20;53.30;;;;;;6272819;28;19912;-68
2023/05/04 11:07:33;;;;;;;;;;;19.20;53.30;;;;;;6269278;28;20499;-68
2023/05/04 11:10:34;;;;;;;;;;;19.20;53.40;;;;;;6249039;28;19916;-69
2023/05/04 11:13:40;;;;;;;;;;;19.10;53.30;;;;;;6250046;28;19909;-69
2023/05/04 11:16:40;;;;;;;;;;;19.10;53.30;;;;;;6272940;28;19912;-68
2023/05/04 11:19:50;;;;;;;;;;;19.20;53.40;;;;;;6252580;28;19936;-69
2023/05/04 11:22:51;;;;;;;;;;;19.20;53.30;;;;;;6250775;28;20409;-69
2023/05/04 11:25:52;;;;;;;;;;;19.20;53.40;;;;;;6269630;28;20316;-68
2023/05/04 11:28:53;;;;;;;;;;;19.20;53.40;;;;;;6272391;28;19916;-69
2023/05/04 11:31:54;;;;;;;;;;;19.20;53.50;;;;;;6268108;28;19978;-69
2023/05/04 11:34:55;;;;;;;;;;;19.20;53.50;;;;;;6267559;28;19913;-69
2023/05/04 11:37:56;;;;;;;;;;;19.20;53.50;;;;;;6250674;28;20043;-68
2023/05/04 11:40:56;;;;;;;;;;;19.20;53.50;;;;;;6272484;28;19959;-68
2023/05/04 11:43:59;;;;;;;;;;;19.20;53.50;;;;;;6272346;28;19910;-69
2023/05/04 11:47:00;;;;;;;;;;;19.10;53.40;;;;;;6270472;28;19908;-68
2023/05/04 11:50:02;;;;;;;;;;;19.10;53.40;;;;;;6272413;28;20305;-69
2023/05/04 11:53:04;;;;;;;;;;;19.20;53.50;;;;;;6270260;28;19943;-68
2023/05/04 11:56:05;;;;;;;;;;;19.10;53.40;;;;;;6263957;28;20348;-68
2023/05/04 11:59:06;;;;;;;;;;;19.20;53.60;;;;;;6262231;28;19916;-69
2023/05/04 12:02:13;;;;;;;;;;;19.10;53.50;;;;;;6261759;28;21596;-69
2023/05/04 12:05:14;;;;;;;;;;;19.10;53.50;;;;;;6265595;28;19909;-69
2023/05/04 12:08:33;;;;;;;;;;;19.10;53.50;;;;;;6264495;28;19909;-72
2023/05/04 12:11:34;;;;;;;;;;;19.20;53.60;;;;;;6271892;28;19909;-69
2023/05/04 12:14:45;;;;;;;;;;;19.10;53.60;;;;;;6271383;28;19920;-69
2023/05/04 12:17:46;;;;;;;;;;;19.10;53.60;;;;;;6247151;28;19913;-68
2023/05/04 12:20:47;;;;;;;;;;;19.10;53.60;;;;;;6267802;28;20305;-68
2023/05/04 12:23:48;;;;;;;;;;;19.10;53.60;;;;;;6266842;28;19909;-69
2023/05/04 12:26:49;;;;;;;;;;;19.10;53.60;;;;;;6260283;28;19955;-68
2023/05/04 12:29:50;;;;;;;;;;;19.10;53.60;;;;;;6271028;28;19932;-69
2023/05/04 12:32:51;;;;;;;;;;;19.10;53.60;;;;;;6270104;28;19963;-69
2023/05/04 12:35:52;;;;;;;;;;;19.10;53.70;;;;;;6270775;28;19908;-68
2023/05/04 12:38:53;;;;;;;;;;;19.10;53.70;;;;;;6270929;28;20024;-69
2023/05/04 12:41:54;;;;;;;;;;;19.10;53.60;;;;;;6263425;28;19917;-68
2023/05/04 12:44:54;;;;;;;;;;;19.10;53.70;;;;;;6270286;28;19932;-67
2023/05/04 12:47:55;;;;;;;;;;;19.10;53.70;;;;;;6271630;28;19913;-66
2023/05/04 12:50:56;;;;;;;;;;;19.10;53.70;;;;;;6271577;28;19921;-67
2023/05/04 12:53:57;;;;;;;;;;;19.10;53.70;;;;;;6271368;28;19917;-69
2023/05/04 12:56:58;;;;;;;;;;;19.10;53.70;;;;;;6270412;28;19920;-68
2023/05/04 12:59:59;;;;;;;;;;;19.10;53.70;;;;;;6271597;28;19970;-65
2023/05/04 13:03:01;;;;;;;;;;;19.10;53.60;;;;;;6271680;28;19917;-66
2023/05/04 13:06:03;;;;;;;;;;;19.10;53.60;;;;;;6271564;28;20381;-69
2023/05/04 13:09:04;;;;;;;;;;;19.20;53.70;;;;;;6271363;28;19909;-69
2023/05/04 13:12:05;;;;;;;;;;;19.20;53.80;;;;;;6271097;28;19909;-68
2023/05/04 13:15:06;;;;;;;;;;;19.10;53.60;;;;;;6267835;28;20289;-69
2023/05/04 13:18:07;;;;;;;;;;;19.10;53.80;;;;;;6267942;28;19990;-68
2023/05/04 13:21:08;;;;;;;;;;;19.10;53.70;;;;;;6270621;28;19913;-68
2023/05/04 13:24:10;;;;;;;;;;;19.10;53.70;;;;;;6258750;28;19996;-68
2023/05/04 13:27:11;;;;;;;;;;;19.10;53.70;;;;;;6262462;28;19909;-69
2023/05/04 13:30:11;;;;;;;;;;;19.10;53.70;;;;;;6270226;28;19968;-69
2023/05/04 13:33:12;;;;;;;;;;;19.10;53.70;;;;;;6285833;28;19913;-67
2023/05/04 13:36:13;;;;;;;;;;;19.10;53.70;;;;;;6269513;28;19909;-69
2023/05/04 13:39:13;;;;;;;;;;;19.10;53.70;;;;;;6270544;28;19905;-69
2023/05/04 13:42:14;;;;;;;;;;;19.10;53.70;;;;;;6263000;28;19913;-69
2023/05/04 13:45:15;;;;;;;;;;;19.10;53.80;;;;;;6269992;28;19952;-69
2023/05/04 13:48:15;;;;;;;;;;;19.10;53.70;;;;;;6269416;28;19909;-68
2023/05/04 13:51:16;;;;;;;;;;;19.10;53.70;;;;;;6263295;28;19917;-69
2023/05/04 13:54:17;;;;;;;;;;;19.10;53.70;;;;;;6268395;28;19913;-69
2023/05/04 13:57:17;;;;;;;;;;;19.10;53.80;;;;;;6268420;28;19913;-69
2023/05/04 14:00:19;;;;;;;;;;;19.10;53.70;;;;;;6269340;28;19909;-69
2023/05/04 14:03:20;;;;;;;;;;;19.10;53.70;;;;;;6269695;28;19948;-69
2023/05/04 14:06:21;;;;;;;;;;;19.10;53.80;;;;;;6268047;28;19935;-69
2023/05/04 14:09:21;;;;;;;;;;;19.10;53.80;;;;;;6273125;28;19908;-69
2023/05/04 14:12:22;;;;;;;;;;;19.10;53.80;;;;;;6259243;28;20015;-69
2023/05/04 14:15:25;;;;;;;;;;;19.10;53.80;;;;;;6249598;28;20433;-68
2023/05/04 14:18:27;;;;;;;;;;;19.10;53.80;;;;;;6262874;28;19917;-69
2023/05/04 14:21:27;;;;;;;;;;;19.10;53.80;;;;;;6248234;28;19920;-69
2023/05/04 14:24:28;;;;;;;;;;;19.10;53.80;;;;;;6286207;28;20270;-74
2023/05/04 14:27:33;;;;;;;;;;;19.10;53.80;;;;;;6275363;28;19913;-68
2023/05/04 14:30:33;;;;;;;;;;;19.10;53.80;;;;;;6297448;28;19955;-67
2023/05/04 14:33:35;;;;;;;;;;;19.30;53.90;;;;;;6275260;28;19909;-69
2023/05/04 14:36:35;;;;;;;;;;;19.30;53.70;;;;;;6266479;28;19921;-65
2023/05/04 14:39:36;;;;;;;;;;;19.30;53.90;;;;;;6271458;28;19970;-70
2023/05/04 14:42:37;;;;;;;;;;;19.30;53.70;;;;;;6267734;28;19946;-68
2023/05/04 14:45:38;;;;;;;;;;;19.20;53.80;;;;;;6271667;28;19909;-68
2023/05/04 14:48:38;;;;;;;;;;;19.20;53.90;;;;;;6252148;28;19931;-69
2023/05/04 14:51:39;;;;;;;;;;;19.20;53.90;;;;;;6248260;28;20286;-68
2023/05/04 14:54:42;;;;;;;;;;;19.20;53.90;;;;;;6260441;28;19916;-69
2023/05/04 14:57:43;;;;;;;;;;;19.20;54.00;;;;;;6251045;28;19917;-66
2023/05/04 15:00:44;;;;;;;;;;;19.10;53.90;;;;;;6246429;28;20670;-67
2023/05/04 15:03:45;;;;;;;;;;;19.10;53.90;;;;;;6265158;28;19927;-68
2023/05/04 15:06:45;;;;;;;;;;;19.20;54.00;;;;;;6271154;28;19913;-67
2023/05/04 15:09:46;;;;;;;;;;;19.10;53.90;;;;;;6267277;28;19938;-68
2023/05/04 15:12:46;;;;;;;;;;;19.20;53.90;;;;;;6267999;28;19999;-68
2023/05/04 15:15:47;;;;;;;;;;;19.20;53.90;;;;;;6263291;28;19917;-69
2023/05/04 15:18:47;;;;;;;;;;;19.20;53.90;;;;;;6260429;28;19912;-72
2023/05/04 15:21:48;;;;;;;;;;;19.20;53.90;;;;;;6270308;28;19909;-70
2023/05/04 15:24:50;;;;;;;;;;;19.20;53.90;;;;;;6272959;28;19908;-68
2023/05/04 15:27:50;;;;;;;;;;;19.20;53.80;;;;;;6273716;28;20004;-67
2023/05/04 15:30:51;;;;;;;;;;;19.20;53.80;;;;;;6271992;28;19912;-68
2023/05/04 15:33:52;;;;;;;;;;;19.20;53.80;;;;;;6272678;28;20004;-68
2023/05/04 15:36:53;;;;;;;;;;;19.20;53.70;;;;;;6272585;28;19970;-67
2023/05/04 15:39:54;;;;;;;;;;;19.20;53.80;;;;;;6272519;28;20583;-68
2023/05/04 15:42:55;;;;;;;;;;;19.20;53.80;;;;;;6272159;28;19991;-68
2023/05/04 15:45:56;;;;;;;;;;;19.20;53.90;;;;;;6272454;28;19915;-68
2023/05/04 15:48:56;;;;;;;;;;;19.20;53.90;;;;;;6262940;28;20787;-68
2023/05/04 15:51:57;;;;;;;;;;;19.20;53.90;;;;;;6247693;28;19913;-68
2023/05/04 15:55:00;;;;;;;;;;;19.20;53.90;;;;;;6268119;28;19909;-68
2023/05/04 15:58:01;;;;;;;;;;;19.20;53.90;;;;;;6270667;28;19912;-68
2023/05/04 16:01:02;;;;;;;;;;;19.20;54.00;;;;;;6272376;28;19955;-68
2023/05/04 16:04:03;;;;;;;;;;;19.20;53.90;;;;;;6272120;28;19916;-67
2023/05/04 16:07:03;;;;;;;;;;;19.20;53.90;;;;;;6270153;28;19949;-68
2023/05/04 16:10:04;;;;;;;;;;;19.20;53.90;;;;;;6262346;28;19916;-68
2023/05/04 16:13:05;;;;;;;;;;;19.20;53.90;;;;;;6272406;28;20290;-68
2023/05/04 16:16:06;;;;;;;;;;;19.20;53.90;;;;;;6269623;28;19931;-68
2023/05/04 16:19:06;;;;;;;;;;;19.20;54.00;;;;;;6270169;28;19913;-68
2023/05/04 16:22:07;;;;;;;;;;;19.20;54.00;;;;;;6269573;28;20346;-67
2023/05/04 16:25:08;;;;;;;;;;;19.20;54.00;;;;;;6269396;28;19915;-68
2023/05/04 16:28:09;;;;;;;;;;;19.20;54.00;;;;;;6269201;28;19916;-68
2023/05/04 16:31:09;;;;;;;;;;;19.20;54.00;;;;;;6269320;28;19909;-67
2023/05/04 16:34:10;;;;;;;;;;;19.10;53.90;;;;;;6269279;28;20330;-68
2023/05/04 16:37:10;;;;;;;;;;;19.10;54.00;;;;;;6268030;28;19912;-67
2023/05/04 16:40:12;;;;;;;;;;;19.10;53.90;;;;;;6268224;28;19913;-68
2023/05/04 16:43:13;;;;;;;;;;;19.10;53.90;;;;;;6268952;28;20336;-68
2023/05/04 16:46:14;;;;;;;;;;;19.10;53.90;;;;;;6269226;28;19916;-68
2023/05/04 16:49:14;;;;;;;;;;;19.10;54.00;;;;;;6269096;28;19978;-68
2023/05/04 16:52:15;;;;;;;;;;;19.10;54.00;;;;;;6270185;28;19913;-68
2023/05/04 16:55:15;;;;;;;;;;;19.10;54.00;;;;;;6268798;28;19919;-68
2023/05/04 16:58:16;;;;;;;;;;;19.10;54.00;;;;;;6268798;28;19972;-68
2023/05/04 17:01:17;;;;;;;;;;;19.10;54.00;;;;;;6260179;28;19917;-68
2023/05/04 17:04:17;;;;;;;;;;;19.10;54.00;;;;;;6266163;28;20050;-68
2023/05/04 17:07:18;;;;;;;;;;;19.10;54.00;;;;;;6268996;28;19913;-68
2023/05/04 17:10:18;;;;;;;;;;;19.10;54.00;;;;;;6269092;28;19932;-68
2023/05/04 17:13:19;;;;;;;;;;;19.10;54.10;;;;;;6268907;28;19952;-68
2023/05/04 17:16:19;;;;;;;;;;;19.10;54.10;;;;;;6268503;28;19909;-68
2023/05/04 17:19:20;;;;;;;;;;;19.10;54.00;;;;;;6267235;28;19908;-67
2023/05/04 17:22:22;;;;;;;;;;;19.10;54.00;;;;;;6268680;28;19958;-68
2023/05/04 17:25:26;;;;;;;;;;;19.10;54.10;;;;;;6268204;28;20169;-68
2023/05/04 17:28:27;;;;;;;;;;;19.20;54.20;;;;;;6268718;28;19909;-68
2023/05/04 17:31:28;;;;;;;;;;;19.10;54.10;;;;;;6268399;28;19915;-68
2023/05/04 17:34:29;;;;;;;;;;;19.10;54.10;;;;;;6268714;28;19909;-68